Terminal Aerodrome Forecast
Issued by NWS

Current Version | Previous Version | Text Only | Print | Product List | Glossary On
Versions: 1 2 3 4 5 6 7 8 9 10 11 12 13 14 15 16 17 18 19 20 21 22 23 24 25 26 27 28 29 30 31 32 33 34 35 36 37 38 39
000
FTUS43 KGLD 111400 AAB
TAFMCK
TAF AMD
KMCK 111417Z 1114/1212 12007KT 6SM BR FEW003 SCT011
      TEMPO 1114/1115 2SM BR BKN003
     FM111530 15010KT P6SM SCT250
     FM120000 17015G24KT P6SM VCTS BKN110CB
     FM120600 20010KT P6SM BKN150=

USA.gov is the U.S. government's official web portal to all federal, state and local government web resources and services.